createdAt,value
2018-12-24T00:01:53.609Z,100.00
2018-12-24T00:04:26.719Z,100.00
2018-12-24T00:07:04.390Z,100.00
2018-12-24T00:09:38.441Z,100.00
2018-12-24T00:12:13.591Z,100.00
2018-12-24T00:14:47.996Z,100.00
2018-12-24T00:17:20.903Z,100.00
2018-12-24T00:19:55.461Z,100.00
2018-12-24T00:22:28.917Z,100.00
2018-12-24T00:25:01.939Z,99.93
2018-12-24T00:27:36.872Z,99.57
2018-12-24T00:30:16.168Z,99.48
2018-12-24T00:32:49.196Z,99.45
2018-12-24T00:35:22.347Z,99.32
2018-12-24T00:37:55.675Z,99.26
2018-12-24T00:40:28.696Z,99.32
2018-12-24T00:43:01.595Z,99.30
2018-12-24T00:45:37.346Z,99.41
2018-12-24T00:48:25.642Z,99.55
2018-12-24T00:50:58.664Z,99.59
2018-12-24T00:53:33.948Z,99.67
2018-12-24T00:56:06.912Z,99.61
2018-12-24T00:58:39.811Z,99.59
2018-12-24T01:01:13.691Z,99.64
2018-12-24T01:03:46.905Z,99.56
2018-12-24T01:06:20.671Z,99.58
2018-12-24T01:08:57.321Z,99.65
2018-12-24T01:11:30.341Z,99.79
2018-12-24T01:14:03.964Z,99.89
2018-12-24T01:16:38.407Z,100.00
2018-12-24T01:19:12.029Z,100.00
2018-12-24T01:21:45.836Z,100.00
2018-12-24T01:24:19.945Z,100.00
2018-12-24T01:26:54.067Z,100.00
2018-12-24T01:29:26.969Z,100.00
2018-12-24T01:32:00.362Z,100.00
2018-12-24T01:34:33.302Z,100.00
2018-12-24T01:37:07.645Z,100.00
2018-12-24T01:39:41.771Z,100.00
2018-12-24T01:42:15.849Z,100.00
2018-12-24T01:44:49.020Z,100.00
2018-12-24T01:47:22.564Z,100.00
2018-12-24T01:49:55.586Z,100.00
2018-12-24T01:52:28.552Z,100.00
2018-12-24T01:55:03.934Z,100.00
2018-12-24T01:57:37.000Z,100.00
2018-12-24T02:00:09.996Z,100.00
2018-12-24T02:02:45.592Z,100.00
2018-12-24T02:05:18.306Z,100.00
2018-12-24T02:07:51.381Z,100.00
2018-12-24T02:10:24.769Z,100.00
2018-12-24T02:12:57.752Z,100.00
2018-12-24T02:15:30.741Z,100.00
2018-12-24T02:18:05.024Z,100.00
2018-12-24T02:20:38.359Z,100.00
2018-12-24T02:23:13.176Z,100.00
2018-12-24T02:25:46.563Z,100.00
2018-12-24T02:28:19.564Z,100.00
2018-12-24T02:30:52.622Z,100.00
2018-12-24T02:33:29.818Z,100.00
2018-12-24T02:36:02.804Z,100.00
2018-12-24T02:38:36.122Z,100.00
2018-12-24T02:41:09.617Z,100.00
2018-12-24T02:43:42.950Z,100.00
2018-12-24T02:46:15.778Z,100.00
2018-12-24T02:48:50.216Z,100.00
2018-12-24T02:51:23.757Z,100.00
2018-12-24T02:53:57.066Z,100.00
2018-12-24T02:56:33.469Z,100.00
2018-12-24T02:59:06.525Z,100.00
2018-12-24T03:01:39.427Z,100.00
2018-12-24T03:04:12.868Z,100.00
2018-12-24T03:06:45.800Z,100.00
2018-12-24T03:09:19.145Z,100.00
2018-12-24T03:11:52.568Z,100.00
2018-12-24T03:14:25.388Z,100.00
2018-12-24T03:16:58.180Z,100.00
2018-12-24T03:19:31.547Z,100.00
2018-12-24T03:22:04.369Z,100.00
2018-12-24T03:24:38.205Z,100.00
2018-12-24T03:27:11.588Z,100.00
2018-12-24T03:29:44.859Z,100.00
2018-12-24T03:32:17.803Z,100.00
2018-12-24T03:34:51.634Z,100.00
2018-12-24T03:37:24.898Z,100.00
2018-12-24T03:39:57.708Z,100.00
2018-12-24T03:42:32.370Z,100.00
2018-12-24T03:45:06.921Z,100.00
2018-12-24T03:47:39.796Z,100.00
2018-12-24T03:50:14.135Z,100.00
2018-12-24T03:52:47.622Z,100.00
2018-12-24T03:55:20.512Z,100.00
2018-12-24T03:57:53.980Z,100.00
2018-12-24T04:00:27.160Z,100.00
2018-12-24T04:03:00.383Z,100.00
2018-12-24T04:05:33.747Z,100.00
2018-12-24T04:08:06.898Z,100.00
2018-12-24T04:10:40.506Z,100.00
2018-12-24T04:13:22.346Z,100.00
2018-12-24T04:15:55.928Z,100.00
2018-12-24T04:18:28.734Z,100.00
2018-12-24T04:21:03.140Z,100.00
2018-12-24T04:23:36.180Z,100.00
2018-12-24T04:26:09.152Z,100.00
2018-12-24T04:28:42.817Z,100.00
2018-12-24T04:31:15.689Z,100.00
2018-12-24T04:33:48.795Z,100.00
2018-12-24T04:36:22.078Z,100.00
2018-12-24T04:38:55.018Z,100.00
2018-12-24T04:41:28.045Z,100.00
2018-12-24T04:44:02.532Z,100.00
2018-12-24T04:46:35.443Z,100.00
2018-12-24T04:49:08.271Z,100.00
2018-12-24T04:51:42.616Z,100.00
2018-12-24T04:54:15.470Z,100.00
2018-12-24T04:56:48.710Z,100.00
2018-12-24T04:59:22.348Z,100.00
2018-12-24T05:01:55.511Z,100.00
2018-12-24T05:04:28.463Z,100.00
2018-12-24T05:07:01.827Z,100.00
2018-12-24T05:09:35.417Z,100.00
2018-12-24T05:12:08.341Z,100.00
2018-12-24T05:14:42.875Z,100.00
2018-12-24T05:17:15.808Z,100.00
2018-12-24T05:19:48.957Z,100.00
2018-12-24T05:22:22.395Z,100.00
2018-12-24T05:24:55.219Z,100.00
2018-12-24T05:27:28.212Z,100.00
2018-12-24T05:30:03.867Z,100.00
2018-12-24T05:32:36.854Z,100.00
2018-12-24T05:35:09.823Z,100.00
2018-12-24T05:37:44.207Z,100.00
2018-12-24T05:40:17.865Z,100.00
2018-12-24T05:42:50.828Z,100.00
2018-12-24T05:45:24.185Z,100.00
2018-12-24T05:47:57.187Z,100.00
2018-12-24T05:50:31.545Z,100.00
2018-12-24T05:53:05.862Z,100.00
2018-12-24T05:55:38.839Z,100.00
2018-12-24T05:58:11.768Z,100.00
2018-12-24T06:00:46.233Z,100.00
2018-12-24T06:03:19.196Z,100.00
2018-12-24T06:05:54.854Z,100.00
2018-12-24T06:08:29.896Z,100.00
2018-12-24T06:11:06.935Z,100.00
2018-12-24T06:13:48.224Z,100.00
2018-12-24T06:16:21.569Z,100.00
2018-12-24T06:18:54.528Z,100.00
2018-12-24T06:21:27.519Z,100.00
2018-12-24T06:24:00.520Z,100.00
2018-12-24T06:26:33.485Z,100.00
2018-12-24T06:29:06.804Z,100.00
2018-12-24T06:31:40.264Z,100.00
2018-12-24T06:34:13.287Z,100.00
2018-12-24T06:36:46.099Z,100.00
2018-12-24T06:39:20.565Z,100.00
2018-12-24T06:41:53.430Z,100.00
2018-12-24T06:44:26.519Z,100.00
2018-12-24T06:47:00.502Z,100.00
2018-12-24T06:49:35.268Z,100.00
2018-12-24T06:52:08.267Z,100.00
2018-12-24T06:54:42.000Z,100.00
2018-12-24T06:57:14.895Z,100.00
2018-12-24T06:59:47.860Z,100.00
2018-12-24T07:02:22.268Z,100.00
2018-12-24T07:04:55.511Z,100.00
2018-12-24T07:07:30.619Z,100.00
2018-12-24T07:10:04.432Z,100.00
2018-12-24T07:12:41.057Z,100.00
2018-12-24T07:15:19.704Z,100.00
2018-12-24T07:17:53.263Z,100.00
2018-12-24T07:20:27.119Z,100.00
2018-12-24T07:23:00.078Z,100.00
2018-12-24T07:25:33.934Z,100.00
2018-12-24T07:28:08.520Z,100.00
2018-12-24T07:30:41.577Z,100.00
2018-12-24T07:33:14.610Z,100.00
2018-12-24T07:35:48.209Z,100.00
2018-12-24T07:38:21.139Z,100.00
2018-12-24T07:40:54.088Z,100.00
2018-12-24T07:43:28.204Z,100.00
2018-12-24T07:46:02.430Z,100.00
2018-12-24T07:48:37.789Z,100.00
2018-12-24T07:51:10.830Z,100.00
2018-12-24T07:53:43.729Z,100.00
2018-12-24T07:56:17.648Z,100.00
2018-12-24T07:58:50.608Z,100.00
2018-12-24T08:01:23.816Z,99.73
2018-12-24T08:03:58.218Z,99.33
2018-12-24T08:06:31.380Z,99.00
2018-12-24T08:09:08.821Z,98.83
2018-12-24T08:11:44.595Z,98.74
2018-12-24T08:14:17.728Z,98.69
2018-12-24T08:16:50.645Z,98.66
2018-12-24T08:19:23.690Z,98.56
2018-12-24T08:21:56.677Z,98.44
2018-12-24T08:24:30.438Z,98.08
2018-12-24T08:27:03.564Z,97.71
2018-12-24T08:29:36.515Z,97.63
2018-12-24T08:32:11.479Z,97.65
2018-12-24T08:34:44.645Z,97.84
2018-12-24T08:37:19.404Z,98.04
2018-12-24T08:39:52.986Z,98.01
2018-12-24T08:42:25.824Z,98.02
2018-12-24T08:44:59.736Z,98.06
2018-12-24T08:47:37.557Z,98.09
2018-12-24T08:50:10.546Z,97.89
2018-12-24T08:52:45.872Z,97.38
2018-12-24T08:55:18.841Z,96.96
2018-12-24T08:57:53.357Z,96.42
2018-12-24T09:00:27.288Z,96.02
2018-12-24T09:03:00.257Z,95.94
2018-12-24T09:05:34.267Z,96.05
2018-12-24T09:08:08.119Z,96.16
2018-12-24T09:10:40.965Z,95.98
2018-12-24T09:13:14.816Z,95.28
2018-12-24T09:15:47.785Z,94.67
2018-12-24T09:18:21.187Z,94.42
2018-12-24T09:20:54.675Z,93.70
2018-12-24T09:23:28.591Z,92.42
2018-12-24T09:26:02.812Z,92.20
2018-12-24T09:28:35.924Z,91.95
2018-12-24T09:31:10.393Z,91.85
2018-12-24T09:33:43.761Z,91.88
2018-12-24T09:36:18.651Z,90.28
2018-12-24T09:38:52.145Z,89.08
2018-12-24T09:41:29.665Z,89.16
2018-12-24T09:44:02.656Z,89.53
2018-12-24T09:46:36.536Z,88.49
2018-12-24T09:49:09.945Z,88.37
2018-12-24T09:51:44.158Z,88.47
2018-12-24T09:54:17.222Z,88.11
2018-12-24T09:56:52.221Z,88.06
2018-12-24T09:59:30.155Z,88.02
2018-12-24T10:02:04.762Z,87.90
2018-12-24T10:04:48.869Z,87.84
2018-12-24T10:07:45.581Z,87.91
2018-12-24T10:10:20.348Z,88.37
2018-12-24T10:12:53.769Z,88.26
2018-12-24T10:15:27.500Z,88.13
2018-12-24T10:18:09.807Z,88.17
2018-12-24T10:20:48.129Z,88.00
2018-12-24T10:23:22.709Z,87.81
2018-12-24T10:25:58.624Z,88.61
2018-12-24T10:28:31.470Z,89.13
2018-12-24T10:31:05.353Z,87.92
2018-12-24T10:33:38.404Z,86.04
2018-12-24T10:36:13.118Z,84.33
2018-12-24T10:38:47.523Z,83.34
2018-12-24T10:41:26.913Z,81.94
2018-12-24T10:44:02.274Z,74.93
2018-12-24T10:46:35.453Z,73.26
2018-12-24T10:49:10.744Z,74.76
2018-12-24T10:51:43.685Z,73.63
2018-12-24T10:54:17.267Z,72.55
2018-12-24T10:56:56.719Z,71.94
2018-12-24T10:59:30.434Z,72.24
2018-12-24T11:02:07.470Z,71.92
2018-12-24T11:04:40.447Z,70.50
2018-12-24T11:07:13.843Z,69.74
2018-12-24T11:09:50.616Z,69.94
2018-12-24T11:12:27.049Z,69.68
2018-12-24T11:15:02.578Z,69.96
2018-12-24T11:17:36.541Z,70.83
2018-12-24T11:20:10.879Z,69.61
2018-12-24T11:22:45.623Z,69.80
2018-12-24T11:25:19.528Z,68.77
2018-12-24T11:27:56.574Z,69.70
2018-12-24T11:30:30.699Z,70.86
2018-12-24T11:33:05.155Z,69.77
2018-12-24T11:35:38.759Z,70.82
2018-12-24T11:38:11.780Z,71.26
2018-12-24T11:40:48.179Z,71.96
2018-12-24T11:43:22.554Z,71.87
2018-12-24T11:45:56.757Z,72.27
2018-12-24T11:48:31.397Z,72.29
2018-12-24T11:51:04.675Z,73.27
2018-12-24T11:53:38.861Z,73.33
2018-12-24T11:56:13.995Z,72.84
2018-12-24T11:58:48.810Z,72.71
2018-12-24T12:01:22.467Z,70.24
2018-12-24T12:03:57.038Z,70.68
2018-12-24T12:06:30.828Z,70.43
2018-12-24T12:09:10.492Z,69.90
2018-12-24T12:11:44.265Z,69.78
2018-12-24T12:14:17.238Z,68.04
2018-12-24T12:16:52.568Z,67.20
2018-12-24T12:19:26.658Z,67.68
2018-12-24T12:22:01.255Z,66.76
2018-12-24T12:24:36.513Z,65.88
2018-12-24T12:27:10.432Z,66.35
2018-12-24T12:29:44.171Z,65.66
2018-12-24T12:32:18.748Z,65.33
2018-12-24T12:34:52.871Z,66.03
2018-12-24T12:37:31.973Z,67.70
2018-12-24T12:40:06.310Z,68.88
2018-12-24T12:42:39.298Z,69.18
2018-12-24T12:45:15.026Z,68.52
2018-12-24T12:47:47.873Z,68.45
2018-12-24T12:50:26.359Z,68.13
2018-12-24T12:53:00.357Z,65.86
2018-12-24T12:55:33.373Z,65.96
2018-12-24T12:58:06.826Z,66.83
2018-12-24T13:00:40.953Z,67.74
2018-12-24T13:03:14.639Z,68.71
2018-12-24T13:05:48.246Z,70.28
2018-12-24T13:08:24.247Z,71.41
2018-12-24T13:10:57.278Z,71.71
2018-12-24T13:13:36.684Z,71.85
2018-12-24T13:16:11.033Z,72.22
2018-12-24T13:18:43.960Z,71.47
2018-12-24T13:21:18.408Z,71.47
2018-12-24T13:23:51.946Z,71.50
2018-12-24T13:26:25.052Z,70.83
2018-12-24T13:28:58.648Z,70.45
2018-12-24T13:31:33.325Z,70.68
2018-12-24T13:34:07.180Z,69.33
2018-12-24T13:36:43.378Z,67.92
2018-12-24T13:39:16.519Z,67.27
2018-12-24T13:41:50.135Z,68.00
2018-12-24T13:44:23.492Z,68.26
2018-12-24T13:46:56.564Z,69.08
2018-12-24T13:49:30.284Z,69.45
2018-12-24T13:52:04.088Z,68.67
2018-12-24T13:54:37.750Z,69.25
2018-12-24T13:57:12.486Z,69.23
2018-12-24T13:59:46.684Z,69.17
2018-12-24T14:02:19.786Z,69.69
2018-12-24T14:04:53.378Z,70.11
2018-12-24T14:07:28.645Z,71.08
2018-12-24T14:10:01.619Z,71.41
2018-12-24T14:12:34.639Z,71.59
2018-12-24T14:15:08.647Z,71.85
2018-12-24T14:17:54.602Z,72.11
2018-12-24T14:20:29.011Z,72.71
2018-12-24T14:23:04.455Z,72.99
2018-12-24T14:25:38.579Z,73.07
2018-12-24T14:28:12.769Z,72.49
2018-12-24T14:30:46.733Z,71.86
2018-12-24T14:33:21.003Z,70.70
2018-12-24T14:35:54.608Z,69.86
2018-12-24T14:38:27.620Z,67.25
2018-12-24T14:41:00.538Z,65.82
2018-12-24T14:43:34.034Z,65.87
2018-12-24T14:46:06.903Z,66.20
2018-12-24T14:48:40.538Z,66.14
2018-12-24T14:51:18.140Z,66.77
2018-12-24T14:54:07.223Z,67.29
2018-12-24T14:56:41.457Z,68.28
2018-12-24T14:59:16.077Z,69.12
2018-12-24T15:01:48.993Z,69.60
2018-12-24T15:04:22.822Z,70.22
2018-12-24T15:06:56.055Z,70.78
2018-12-24T15:09:29.580Z,71.41
2018-12-24T15:12:04.212Z,71.95
2018-12-24T15:14:37.944Z,72.53
2018-12-24T15:17:11.821Z,72.98
2018-12-24T15:19:46.267Z,73.57
2018-12-24T15:22:19.639Z,74.08
2018-12-24T15:24:52.650Z,74.49
2018-12-24T15:27:26.445Z,74.83
2018-12-24T15:30:00.768Z,75.64
2018-12-24T15:32:34.593Z,75.63
2018-12-24T15:35:09.056Z,75.71
2018-12-24T15:37:43.393Z,75.98
2018-12-24T15:40:16.766Z,75.99
2018-12-24T15:42:50.489Z,76.76
2018-12-24T15:45:23.443Z,76.88
2018-12-24T15:47:56.264Z,76.83
2018-12-24T15:50:29.235Z,76.94
2018-12-24T15:53:03.906Z,77.39
2018-12-24T15:55:38.070Z,77.36
2018-12-24T15:58:11.880Z,77.92
2018-12-24T16:00:44.856Z,78.83
2018-12-24T16:03:25.527Z,79.30
2018-12-24T16:06:01.516Z,80.22
2018-12-24T16:08:37.801Z,81.15
2018-12-24T16:11:11.184Z,81.75
2018-12-24T16:13:44.701Z,82.15
2018-12-24T16:16:19.099Z,82.21
2018-12-24T16:18:55.885Z,82.37
2018-12-24T16:21:29.542Z,82.29
2018-12-24T16:24:03.015Z,82.46
2018-12-24T16:26:36.048Z,82.73
2018-12-24T16:29:16.197Z,82.63
2018-12-24T16:31:50.151Z,83.08
2018-12-24T16:34:25.800Z,83.59
2018-12-24T16:37:01.522Z,84.23
2018-12-24T16:39:59.392Z,84.24
2018-12-24T16:42:36.962Z,84.64
2018-12-24T16:45:12.580Z,84.90
2018-12-24T16:47:54.320Z,85.06
2018-12-24T16:50:29.635Z,85.57
2018-12-24T16:53:06.360Z,86.18
2018-12-24T16:55:40.543Z,86.34
2018-12-24T16:58:15.393Z,86.96
2018-12-24T17:00:53.593Z,87.64
2018-12-24T17:03:27.454Z,88.31
2018-12-24T17:06:00.369Z,88.44
2018-12-24T17:08:35.396Z,88.11
2018-12-24T17:11:09.324Z,87.86
2018-12-24T17:13:43.100Z,88.26
2018-12-24T17:16:17.365Z,88.35
2018-12-24T17:18:50.266Z,88.35
2018-12-24T17:21:23.302Z,88.11
2018-12-24T17:23:57.496Z,88.29
2018-12-24T17:26:31.413Z,88.22
2018-12-24T17:29:05.288Z,88.30
2018-12-24T17:31:39.323Z,88.44
2018-12-24T17:34:13.127Z,88.82
2018-12-24T17:36:47.084Z,89.17
2018-12-24T17:39:20.490Z,89.23
2018-12-24T17:41:57.337Z,89.31
2018-12-24T17:44:31.015Z,89.79
2018-12-24T17:47:05.683Z,89.77
2018-12-24T17:49:40.652Z,89.74
2018-12-24T17:52:14.671Z,89.87
2018-12-24T17:54:48.039Z,89.99
2018-12-24T17:57:22.569Z,89.88
2018-12-24T17:59:55.444Z,89.78
2018-12-24T18:02:28.799Z,89.87
2018-12-24T18:05:01.758Z,90.21
2018-12-24T18:07:34.779Z,90.57
2018-12-24T18:10:07.713Z,90.72
2018-12-24T18:12:42.524Z,90.65
2018-12-24T18:15:19.538Z,90.72
2018-12-24T18:17:53.743Z,91.06
2018-12-24T18:20:27.239Z,91.73
2018-12-24T18:23:00.293Z,91.53
2018-12-24T18:25:35.091Z,91.33
2018-12-24T18:28:09.710Z,91.27
2018-12-24T18:30:44.148Z,91.87
2018-12-24T18:33:17.666Z,91.89
2018-12-24T18:35:51.306Z,92.16
2018-12-24T18:38:25.677Z,92.45
2018-12-24T18:41:00.661Z,92.36
2018-12-24T18:43:34.214Z,92.76
2018-12-24T18:46:07.591Z,92.77
2018-12-24T18:48:41.376Z,92.50
2018-12-24T18:51:14.391Z,92.27
2018-12-24T18:53:47.625Z,92.39
2018-12-24T18:56:20.463Z,92.46
2018-12-24T18:58:53.325Z,92.81
2018-12-24T19:01:26.900Z,93.34
2018-12-24T19:04:00.958Z,93.48
2018-12-24T19:06:33.884Z,93.18
2018-12-24T19:09:08.328Z,92.95
2018-12-24T19:11:41.290Z,93.24
2018-12-24T19:14:14.359Z,93.58
2018-12-24T19:16:48.144Z,94.43
2018-12-24T19:19:21.970Z,94.99
2018-12-24T19:21:56.084Z,95.33
2018-12-24T19:24:38.384Z,95.86
2018-12-24T19:27:11.293Z,96.24
2018-12-24T19:29:50.557Z,96.44
2018-12-24T19:32:26.612Z,96.53
2018-12-24T19:35:03.215Z,96.71
2018-12-24T19:37:36.588Z,96.94
2018-12-24T19:40:11.697Z,97.01
2018-12-24T19:42:45.461Z,97.19
2018-12-24T19:46:28.897Z,97.37
2018-12-24T19:49:03.758Z,97.53
2018-12-24T19:51:43.664Z,97.79
2018-12-24T19:54:21.277Z,97.97
2018-12-24T19:56:54.694Z,98.14
2018-12-24T19:59:34.048Z,98.35
2018-12-24T20:02:09.766Z,98.65
2018-12-24T20:04:44.081Z,98.70
2018-12-24T20:07:19.352Z,98.73
2018-12-24T20:09:54.590Z,98.81
2018-12-24T20:12:30.224Z,98.98
2018-12-24T20:15:06.548Z,99.11
2018-12-24T20:17:40.184Z,99.16
2018-12-24T20:20:13.987Z,99.20
2018-12-24T20:22:47.619Z,99.27
2018-12-24T20:25:23.406Z,99.37
2018-12-24T20:27:58.403Z,99.53
2018-12-24T20:30:31.408Z,99.62
2018-12-24T20:33:04.910Z,99.64
2018-12-24T20:35:38.860Z,99.72
2018-12-24T20:38:13.521Z,99.79
2018-12-24T20:40:47.345Z,99.85
2018-12-24T20:43:22.188Z,99.91
2018-12-24T20:45:55.970Z,100.00
2018-12-24T20:48:30.490Z,100.00
2018-12-24T20:51:04.720Z,100.00
2018-12-24T20:53:37.823Z,100.00
2018-12-24T20:56:12.913Z,100.00
2018-12-24T20:58:47.370Z,100.00
2018-12-24T21:01:21.547Z,100.00
2018-12-24T21:03:56.185Z,100.00
2018-12-24T21:06:29.836Z,100.00
2018-12-24T21:09:04.817Z,100.00
2018-12-24T21:11:41.120Z,100.00
2018-12-24T21:14:17.092Z,100.00
2018-12-24T21:16:50.764Z,100.00
2018-12-24T21:19:24.795Z,100.00
2018-12-24T21:21:59.917Z,100.00
2018-12-24T21:24:32.867Z,100.00
2018-12-24T21:27:06.756Z,100.00
2018-12-24T21:29:41.295Z,100.00
2018-12-24T21:32:14.295Z,100.00
2018-12-24T21:34:48.056Z,100.00
2018-12-24T21:37:21.221Z,100.00
2018-12-24T21:39:54.197Z,100.00
2018-12-24T21:42:27.724Z,100.00
2018-12-24T21:45:03.902Z,100.00
2018-12-24T21:47:37.638Z,100.00
2018-12-24T21:50:13.672Z,100.00
2018-12-24T21:52:46.972Z,100.00
2018-12-24T21:55:19.998Z,100.00
2018-12-24T21:57:53.475Z,100.00
2018-12-24T22:00:28.058Z,100.00
2018-12-24T22:03:02.142Z,100.00
2018-12-24T22:05:36.496Z,100.00
2018-12-24T22:08:09.985Z,100.00
2018-12-24T22:10:43.981Z,100.00
2018-12-24T22:13:17.871Z,100.00
2018-12-24T22:15:56.759Z,100.00
2018-12-24T22:18:32.370Z,100.00
2018-12-24T22:21:07.445Z,100.00
2018-12-24T22:23:41.375Z,100.00
2018-12-24T22:26:15.741Z,100.00
2018-12-24T22:28:49.715Z,100.00
2018-12-24T22:31:25.242Z,99.89
2018-12-24T22:33:58.269Z,99.70
2018-12-24T22:36:32.727Z,99.59
2018-12-24T22:39:08.630Z,99.45
2018-12-24T22:41:42.620Z,99.34
2018-12-24T22:44:17.297Z,99.22
2018-12-24T22:46:50.493Z,99.06
2018-12-24T22:49:24.558Z,99.04
2018-12-24T22:51:58.826Z,99.03
2018-12-24T22:54:32.644Z,98.78
2018-12-24T22:57:05.641Z,98.39
2018-12-24T22:59:39.247Z,98.33
2018-12-24T23:02:12.274Z,98.35
2018-12-24T23:04:45.179Z,98.14
2018-12-24T23:07:18.530Z,97.83
2018-12-24T23:09:52.365Z,97.56
2018-12-24T23:12:27.706Z,97.11
2018-12-24T23:15:05.046Z,96.61
2018-12-24T23:17:39.222Z,96.14
2018-12-24T23:20:16.424Z,95.70
2018-12-24T23:22:51.063Z,95.30
2018-12-24T23:25:24.035Z,95.02
2018-12-24T23:28:02.934Z,94.67
2018-12-24T23:30:36.663Z,94.50
2018-12-24T23:33:11.399Z,94.32
2018-12-24T23:35:45.832Z,94.11
2018-12-24T23:38:18.872Z,93.96
2018-12-24T23:40:51.854Z,93.56
2018-12-24T23:43:25.449Z,93.20
2018-12-24T23:46:02.025Z,92.92
2018-12-24T23:48:36.195Z,92.71
2018-12-24T23:51:09.703Z,92.40
2018-12-24T23:53:42.630Z,92.16
2018-12-24T23:56:17.631Z,91.97
2018-12-24T23:58:54.175Z,91.83
